Legend Of The Seas — C6SL5 — position and weather

sailwx.info

Track history (hours):
 
Tides and Currents Weather Stations Pressure Air Temp Water Temp Dewpoint Dewpoint Depression Visibility Wind Speed Wind Dir Waves Ship Positions

Legend Of The Seas

Operator: Royal Caribbean Cruises Ltd

Last reported at 2016-Apr-26 08:28 UTC. Time now 2016-Apr-28 23:36 UTC.
Position S 12°29' E 130°50'.

Type: Passenger vessel. MMSI: 311378000.

Date/timePositionNaut miles runAvg speedWind from/ knotsBaromVisibWave heightAir tempDewpointWater temp
2016-Apr-26 08:28S 12°29' E 130°50'0 0.4
2016-Apr-26 07:32S 12°28' E 130°51'0 0.0
2016-Apr-26 06:33S 12°28' E 130°51'0 0.1
2016-Apr-26 05:32S 12°28' E 130°51'0 0.0
2016-Apr-26 04:06S 12°28' E 130°51'0 0.0
2016-Apr-26 03:31S 12°28' E 130°51'0 0.0
2016-Apr-26 02:33S 12°28' E 130°51'0 0.1
2016-Apr-26 01:33S 12°28' E 130°51'0 0.0
2016-Apr-26 00:33S 12°28' E 130°51'0 0.0
2016-Apr-25 23:33S 12°28' E 130°51'  
2016-Apr-20 08:32S 27°19' E 153°12'9 9.2
2016-Apr-20 07:32S 27°26' E 153°07'2 2.4
2016-Apr-20 06:32S 27°26' E 153°04'0 0.0
2016-Apr-20 05:29S 27°26' E 153°04'0 0.0
2016-Apr-20 04:20S 27°26' E 153°04'0 0.0
2016-Apr-20 03:32S 27°26' E 153°04'0 0.0
2016-Apr-20 02:32S 27°26' E 153°04'0 0.0
2016-Apr-20 01:32S 27°26' E 153°04'0 0.0
2016-Apr-20 00:32S 27°26' E 153°04'0 0.0
2016-Apr-19 23:32S 27°26' E 153°04'0 0.0
2016-Apr-19 22:32S 27°26' E 153°04'0 0.0
2016-Apr-19 21:32S 27°26' E 153°04'0 0.0
2016-Apr-19 20:32S 27°26' E 153°04'0 0.0
2016-Apr-19 19:33S 27°26' E 153°04'5 4.9
2016-Apr-19 18:33S 27°24' E 153°09'1211.9
2016-Apr-19 17:33S 27°15' E 153°18'1413.3
2016-Apr-19 16:30S 27°02' E 153°15'  
Track history (hours):
 
Tides and Currents Weather Stations Pressure Air Temp Water Temp Dewpoint Dewpoint Depression Visibility Wind Speed Wind Dir Waves Ship Positions

Legend Of The Seas

Operator: Royal Caribbean Cruises Ltd

Last reported at 2016-Apr-26 08:28 UTC. Time now 2016-Apr-28 23:36 UTC.
Position S 12°29' E 130°50'.

Type: Passenger vessel. MMSI: 311378000.

Date/timePositionNaut miles runAvg speedWind from/ knotsBaromVisibWave heightAir tempDewpointWater temp
2016-Apr-26 08:28S 12°29' E 130°50'0 0.4
2016-Apr-26 07:32S 12°28' E 130°51'0 0.0
2016-Apr-26 06:33S 12°28' E 130°51'0 0.1
2016-Apr-26 05:32S 12°28' E 130°51'0 0.0
2016-Apr-26 04:06S 12°28' E 130°51'0 0.0
2016-Apr-26 03:31S 12°28' E 130°51'0 0.0
2016-Apr-26 02:33S 12°28' E 130°51'0 0.1
2016-Apr-26 01:33S 12°28' E 130°51'0 0.0
2016-Apr-26 00:33S 12°28' E 130°51'0 0.0
2016-Apr-25 23:33S 12°28' E 130°51'  
2016-Apr-20 08:32S 27°19' E 153°12'9 9.2
2016-Apr-20 07:32S 27°26' E 153°07'2 2.4
2016-Apr-20 06:32S 27°26' E 153°04'0 0.0
2016-Apr-20 05:29S 27°26' E 153°04'0 0.0
2016-Apr-20 04:20S 27°26' E 153°04'0 0.0
2016-Apr-20 03:32S 27°26' E 153°04'0 0.0
2016-Apr-20 02:32S 27°26' E 153°04'0 0.0
2016-Apr-20 01:32S 27°26' E 153°04'0 0.0
2016-Apr-20 00:32S 27°26' E 153°04'0 0.0
2016-Apr-19 23:32S 27°26' E 153°04'0 0.0
2016-Apr-19 22:32S 27°26' E 153°04'0 0.0
2016-Apr-19 21:32S 27°26' E 153°04'0 0.0
2016-Apr-19 20:32S 27°26' E 153°04'0 0.0
2016-Apr-19 19:33S 27°26' E 153°04'5 4.9
2016-Apr-19 18:33S 27°24' E 153°09'1211.9
2016-Apr-19 17:33S 27°15' E 153°18'1413.3
2016-Apr-19 16:30S 27°02' E 153°15'  

Dump ship's entire track history